Terminal Aerodrome Forecast
Issued by NWS

Home | Current Version | Previous Version | Text Only | Print | Product List | Glossary On
Versions: 1 2 3 4 5 6 7 8 9 10 11 12 13 14 15
448
FTUS43 KBIS 060523
TAFMOT
TAF
KMOT 060523Z 0606/0706 23009KT P6SM FEW250
     FM060800 28010KT P6SM SCT250
     FM061100 31014KT P6SM SCT250
     FM061300 34022G30KT P6SM SCT250
     FM062000 35016G22KT P6SM SCT250
     FM070200 36009KT P6SM FEW250=

USA.gov is the U.S. government's official web portal to all federal, state and local government web resources and services.